createdAt,value
2023-01-03T00:00:05.621Z,1014.16
2023-01-03T00:01:05.523Z,1014.17
2023-01-03T00:02:05.594Z,1014.23
2023-01-03T00:03:05.532Z,1014.19
2023-01-03T00:04:05.592Z,1014.22
2023-01-03T00:05:05.443Z,1014.23
2023-01-03T00:06:05.431Z,1014.28
2023-01-03T00:07:05.431Z,1014.25
2023-01-03T00:08:05.410Z,1014.33
2023-01-03T00:09:05.401Z,1014.33
2023-01-03T00:10:05.390Z,1014.32
2023-01-03T00:11:05.400Z,1014.43
2023-01-03T00:12:05.408Z,1014.35
2023-01-03T00:13:05.395Z,1014.44
2023-01-03T00:14:05.389Z,1014.40
2023-01-03T00:15:05.393Z,1014.48
2023-01-03T00:16:05.630Z,1014.51
2023-01-03T00:17:05.707Z,1014.44
2023-01-03T00:18:05.338Z,1014.48
2023-01-03T00:19:05.327Z,1014.46
2023-01-03T00:20:05.378Z,1014.38
2023-01-03T00:21:05.366Z,1014.39
2023-01-03T00:22:05.881Z,1014.42
2023-01-03T00:23:05.320Z,1014.38
2023-01-03T00:24:05.349Z,1014.40
2023-01-03T00:25:05.300Z,1014.45
2023-01-03T00:26:05.486Z,1014.42
2023-01-03T00:27:05.367Z,1014.43
2023-01-03T00:28:05.381Z,1014.36
2023-01-03T00:29:05.306Z,1014.41
2023-01-03T00:30:05.275Z,1014.39
2023-01-03T00:31:05.294Z,1014.44
2023-01-03T00:32:05.281Z,1014.42
2023-01-03T00:33:05.336Z,1014.41
2023-01-03T00:34:05.264Z,1014.42
2023-01-03T00:35:05.701Z,1014.42
2023-01-03T00:36:05.216Z,1014.42
2023-01-03T00:37:05.297Z,1014.46
2023-01-03T00:38:05.224Z,1014.49
2023-01-03T00:39:05.204Z,1014.57
2023-01-03T00:40:05.206Z,1014.49
2023-01-03T00:41:05.223Z,1014.49
2023-01-03T00:42:05.220Z,1014.54
2023-01-03T00:43:05.222Z,1014.57
2023-01-03T00:44:05.172Z,1014.57
2023-01-03T00:45:05.189Z,1014.51
2023-01-03T00:46:05.192Z,1014.59
2023-01-03T00:47:05.180Z,1014.57
2023-01-03T00:48:05.154Z,1014.60
2023-01-03T00:49:05.152Z,1014.59
2023-01-03T00:50:05.131Z,1014.58
2023-01-03T00:51:05.120Z,1014.60
2023-01-03T00:52:05.127Z,1014.66
2023-01-03T00:53:05.110Z,1014.64
2023-01-03T00:54:05.097Z,1014.64
2023-01-03T00:55:05.136Z,1014.67
2023-01-03T00:56:05.096Z,1014.68
2023-01-03T00:57:05.098Z,1014.71
2023-01-03T00:58:05.078Z,1014.69
2023-01-03T00:59:05.079Z,1014.71
2023-01-03T01:00:05.073Z,1014.74
2023-01-03T01:01:05.147Z,1014.71
2023-01-03T01:02:05.324Z,1014.76
2023-01-03T01:03:05.164Z,1014.76
2023-01-03T01:04:05.103Z,1014.78
2023-01-03T01:05:05.036Z,1014.79
2023-01-03T01:06:05.284Z,1014.82
2023-01-03T01:07:05.046Z,1014.75
2023-01-03T01:08:05.020Z,1014.81
2023-01-03T01:09:05.004Z,1014.80
2023-01-03T01:10:04.994Z,1014.79
2023-01-03T01:11:04.996Z,1014.83
2023-01-03T01:12:05.004Z,1014.78
2023-01-03T01:13:04.977Z,1014.74
2023-01-03T01:14:05.027Z,1014.76
2023-01-03T01:15:04.978Z,1014.79
2023-01-03T01:16:05.060Z,1014.80
2023-01-03T01:17:04.985Z,1014.81
2023-01-03T01:18:04.955Z,1014.78
2023-01-03T01:19:04.943Z,1014.87
2023-01-03T01:20:04.934Z,1014.85
2023-01-03T01:21:04.933Z,1014.85
2023-01-03T01:22:04.927Z,1014.82
2023-01-03T01:23:04.914Z,1014.86
2023-01-03T01:24:04.943Z,1014.90
2023-01-03T01:25:04.933Z,1014.87
2023-01-03T01:26:05.081Z,1014.90
2023-01-03T01:27:04.931Z,1014.91
2023-01-03T01:28:05.092Z,1014.90
2023-01-03T01:29:05.110Z,1014.86
2023-01-03T01:30:05.131Z,1014.91
2023-01-03T01:31:05.006Z,1014.91
2023-01-03T01:32:05.118Z,1014.95
2023-01-03T01:33:05.123Z,1014.93
2023-01-03T01:34:04.972Z,1014.98
2023-01-03T01:35:05.139Z,1014.92
2023-01-03T01:36:04.940Z,1014.92
2023-01-03T01:37:04.942Z,1015.02
2023-01-03T01:38:05.159Z,1015.00
2023-01-03T01:39:05.169Z,1015.01
2023-01-03T01:40:04.956Z,1015.05
2023-01-03T01:41:05.001Z,1015.02
2023-01-03T01:42:04.947Z,1015.05
2023-01-03T01:43:04.858Z,1015.05
2023-01-03T01:44:04.807Z,1015.07
2023-01-03T01:45:04.869Z,1015.03
2023-01-03T01:46:05.246Z,1015.01
2023-01-03T01:47:05.437Z,1014.99
2023-01-03T01:48:04.905Z,1015.04
2023-01-03T01:49:05.061Z,1015.09
2023-01-03T01:50:04.815Z,1015.03
2023-01-03T01:51:05.038Z,1015.05
2023-01-03T01:52:04.790Z,1015.03
2023-01-03T01:53:04.836Z,1014.99
2023-01-03T01:54:05.484Z,1014.99
2023-01-03T01:55:04.903Z,1014.99
2023-01-03T01:56:05.081Z,1015.01
2023-01-03T01:57:05.096Z,1014.97
2023-01-03T01:58:05.121Z,1015.03
2023-01-03T01:59:04.914Z,1015.04
2023-01-03T02:00:04.682Z,1015.06
2023-01-03T02:01:04.856Z,1015.06
2023-01-03T02:02:04.917Z,1014.99
2023-01-03T02:03:04.832Z,1015.05
2023-01-03T02:04:04.769Z,1015.08
2023-01-03T02:05:04.891Z,1015.04
2023-01-03T02:06:04.964Z,1015.06
2023-01-03T02:07:04.733Z,1015.04
2023-01-03T02:08:04.709Z,1015.11
2023-01-03T02:09:04.976Z,1015.11
2023-01-03T02:10:04.762Z,1015.05
2023-01-03T02:11:05.206Z,1015.12
2023-01-03T02:12:04.771Z,1015.11
2023-01-03T02:13:04.712Z,1015.12
2023-01-03T02:14:05.003Z,1015.10
2023-01-03T02:15:04.631Z,1015.03
2023-01-03T02:16:04.712Z,1015.10
2023-01-03T02:17:04.661Z,1015.07
2023-01-03T02:18:04.670Z,1015.13
2023-01-03T02:19:05.093Z,1015.16
2023-01-03T02:20:04.663Z,1015.14
2023-01-03T02:21:05.479Z,1015.10
2023-01-03T02:22:04.651Z,1015.16
2023-01-03T02:23:04.661Z,1015.13
2023-01-03T02:24:04.708Z,1015.21
2023-01-03T02:25:04.601Z,1015.13
2023-01-03T02:26:05.296Z,1015.20
2023-01-03T02:27:05.304Z,1015.16
2023-01-03T02:28:05.299Z,1015.14
2023-01-03T02:29:04.943Z,1015.16
2023-01-03T02:30:04.778Z,1015.15
2023-01-03T02:31:04.981Z,1015.20
2023-01-03T02:32:05.339Z,1015.18
2023-01-03T02:33:04.586Z,1015.17
2023-01-03T02:34:04.579Z,1015.20
2023-01-03T02:35:05.292Z,1015.22
2023-01-03T02:36:04.555Z,1015.20
2023-01-03T02:37:04.553Z,1015.24
2023-01-03T02:38:04.554Z,1015.26
2023-01-03T02:39:04.771Z,1015.24
2023-01-03T02:40:04.565Z,1015.34
2023-01-03T02:41:04.798Z,1015.31
2023-01-03T02:42:04.774Z,1015.24
2023-01-03T02:43:04.807Z,1015.34
2023-01-03T02:44:04.583Z,1015.41
2023-01-03T02:45:05.077Z,1015.40
2023-01-03T02:46:04.530Z,1015.38
2023-01-03T02:47:05.119Z,1015.37
2023-01-03T02:48:04.648Z,1015.42
2023-01-03T02:49:05.272Z,1015.43
2023-01-03T02:50:04.389Z,1015.47
2023-01-03T02:51:05.296Z,1015.47
2023-01-03T02:52:04.653Z,1015.46
2023-01-03T02:53:04.655Z,1015.50
2023-01-03T02:54:04.451Z,1015.50
2023-01-03T02:55:05.167Z,1015.54
2023-01-03T02:56:04.683Z,1015.58
2023-01-03T02:57:04.690Z,1015.57
2023-01-03T02:58:04.503Z,1015.55
2023-01-03T02:59:04.331Z,1015.62
2023-01-03T03:00:04.414Z,1015.59
2023-01-03T03:01:04.341Z,1015.65
2023-01-03T03:02:04.483Z,1015.62
2023-01-03T03:03:04.448Z,1015.61
2023-01-03T03:04:04.331Z,1015.65
2023-01-03T03:05:04.443Z,1015.66
2023-01-03T03:06:04.359Z,1015.60
2023-01-03T03:07:04.338Z,1015.67
2023-01-03T03:08:04.702Z,1015.70
2023-01-03T03:09:04.365Z,1015.67
2023-01-03T03:10:04.360Z,1015.64
2023-01-03T03:11:04.418Z,1015.66
2023-01-03T03:12:04.329Z,1015.66
2023-01-03T03:13:04.449Z,1015.66
2023-01-03T03:14:04.411Z,1015.71
2023-01-03T03:15:04.441Z,1015.67
2023-01-03T03:16:04.494Z,1015.68
2023-01-03T03:17:04.657Z,1015.74
2023-01-03T03:18:04.279Z,1015.71
2023-01-03T03:19:04.428Z,1015.73
2023-01-03T03:20:06.792Z,1015.72
2023-01-03T03:21:04.686Z,1015.73
2023-01-03T03:22:04.864Z,1015.70
2023-01-03T03:23:04.475Z,1015.69
2023-01-03T03:24:04.461Z,1015.74
2023-01-03T03:25:04.671Z,1015.71
2023-01-03T03:26:04.911Z,1015.71
2023-01-03T03:27:04.896Z,1015.67
2023-01-03T03:28:05.125Z,1015.70
2023-01-03T03:29:04.900Z,1015.71
2023-01-03T03:30:04.292Z,1015.71
2023-01-03T03:31:04.137Z,1015.70
2023-01-03T03:32:04.953Z,1015.72
2023-01-03T03:33:04.724Z,1015.76
2023-01-03T03:34:04.321Z,1015.76
2023-01-03T03:35:04.143Z,1015.79
2023-01-03T03:36:04.324Z,1015.78
2023-01-03T03:37:04.544Z,1015.73
2023-01-03T03:38:04.161Z,1015.81
2023-01-03T03:39:04.553Z,1015.77
2023-01-03T03:40:04.173Z,1015.81
2023-01-03T03:41:04.163Z,1015.81
2023-01-03T03:42:04.391Z,1015.77
2023-01-03T03:43:04.782Z,1015.77
2023-01-03T03:44:04.201Z,1015.78
2023-01-03T03:45:04.170Z,1015.82
2023-01-03T03:46:04.065Z,1015.80
2023-01-03T03:47:04.527Z,1015.78
2023-01-03T03:48:04.039Z,1015.79
2023-01-03T03:49:04.028Z,1015.73
2023-01-03T03:50:04.020Z,1015.74
2023-01-03T03:51:04.062Z,1015.71
2023-01-03T03:52:04.272Z,1015.73
2023-01-03T03:53:04.240Z,1015.71
2023-01-03T03:54:04.286Z,1015.69
2023-01-03T03:55:04.249Z,1015.71
2023-01-03T03:56:03.990Z,1015.71
2023-01-03T03:57:04.468Z,1015.78
2023-01-03T03:58:04.023Z,1015.76
2023-01-03T03:59:04.123Z,1015.77
2023-01-03T04:00:04.066Z,1015.75
2023-01-03T04:01:04.173Z,1015.75
2023-01-03T04:02:04.416Z,1015.77
2023-01-03T04:03:04.111Z,1015.77
2023-01-03T04:04:04.097Z,1015.78
2023-01-03T04:05:04.493Z,1015.75
2023-01-03T04:06:04.363Z,1015.78
2023-01-03T04:07:03.941Z,1015.78
2023-01-03T04:08:04.378Z,1015.74
2023-01-03T04:09:03.952Z,1015.74
2023-01-03T04:10:03.945Z,1015.77
2023-01-03T04:11:04.356Z,1015.79
2023-01-03T04:12:04.640Z,1015.82
2023-01-03T04:13:04.376Z,1015.78
2023-01-03T04:14:04.387Z,1015.80
2023-01-03T04:15:03.932Z,1015.84
2023-01-03T04:16:04.667Z,1015.83
2023-01-03T04:17:03.825Z,1015.76
2023-01-03T04:18:04.396Z,1015.78
2023-01-03T04:19:04.786Z,1015.79
2023-01-03T04:20:04.231Z,1015.82
2023-01-03T04:21:03.938Z,1015.83
2023-01-03T04:22:03.814Z,1015.91
2023-01-03T04:23:04.652Z,1015.94
2023-01-03T04:24:04.557Z,1015.93
2023-01-03T04:25:04.043Z,1015.93
2023-01-03T04:26:04.464Z,1015.92
2023-01-03T04:27:03.846Z,1015.89
2023-01-03T04:28:03.877Z,1015.92
2023-01-03T04:29:03.880Z,1015.94
2023-01-03T04:30:03.864Z,1015.93
2023-01-03T04:31:03.900Z,1015.93
2023-01-03T04:32:03.783Z,1015.87
2023-01-03T04:33:03.891Z,1015.88
2023-01-03T04:34:04.103Z,1015.93
2023-01-03T04:35:04.125Z,1015.86
2023-01-03T04:36:03.750Z,1015.87
2023-01-03T04:37:04.137Z,1015.94
2023-01-03T04:38:04.125Z,1015.88
2023-01-03T04:39:04.151Z,1015.93
2023-01-03T04:40:03.730Z,1015.97
2023-01-03T04:41:03.938Z,1015.93
2023-01-03T04:42:04.168Z,1015.95
2023-01-03T04:43:04.156Z,1015.93
2023-01-03T04:44:03.776Z,1016.00
2023-01-03T04:45:03.763Z,1016.02
2023-01-03T04:46:04.576Z,1016.01
2023-01-03T04:47:03.716Z,1015.97
2023-01-03T04:48:03.628Z,1016.06
2023-01-03T04:49:03.646Z,1016.06
2023-01-03T04:50:03.794Z,1016.03
2023-01-03T04:51:04.550Z,1016.11
2023-01-03T04:52:04.417Z,1016.08
2023-01-03T04:53:03.808Z,1016.05
2023-01-03T04:54:03.644Z,1016.06
2023-01-03T04:55:03.710Z,1016.08
2023-01-03T04:56:04.486Z,1016.07
2023-01-03T04:57:03.574Z,1016.03
2023-01-03T04:58:03.565Z,1016.10
2023-01-03T04:59:03.704Z,1016.05
2023-01-03T05:00:03.670Z,1016.07
2023-01-03T05:01:03.562Z,1016.07
2023-01-03T05:02:03.693Z,1016.09
2023-01-03T05:03:03.521Z,1016.03
2023-01-03T05:04:03.610Z,1016.08
2023-01-03T05:05:03.703Z,1016.02
2023-01-03T05:06:03.549Z,1016.01
2023-01-03T05:07:03.545Z,1016.05
2023-01-03T05:08:03.598Z,1016.05
2023-01-03T05:09:03.563Z,1016.11
2023-01-03T05:10:03.565Z,1016.04
2023-01-03T05:11:03.476Z,1016.03
2023-01-03T05:12:03.564Z,1016.05
2023-01-03T05:13:03.563Z,1016.08
2023-01-03T05:14:05.104Z,1016.13
2023-01-03T05:15:03.452Z,1016.07
2023-01-03T05:16:03.519Z,1016.12
2023-01-03T05:17:03.534Z,1016.12
2023-01-03T05:18:03.408Z,1016.14
2023-01-03T05:19:03.482Z,1016.14
2023-01-03T05:20:03.505Z,1016.21
2023-01-03T05:21:03.522Z,1016.19
2023-01-03T05:22:03.405Z,1016.17
2023-01-03T05:23:03.527Z,1016.19
2023-01-03T05:24:04.821Z,1016.22
2023-01-03T05:25:03.375Z,1016.20
2023-01-03T05:26:03.358Z,1016.24
2023-01-03T05:27:03.386Z,1016.15
2023-01-03T05:28:03.428Z,1016.17
2023-01-03T05:29:03.441Z,1016.18
2023-01-03T05:30:03.453Z,1016.22
2023-01-03T05:31:03.368Z,1016.19
2023-01-03T05:32:03.430Z,1016.24
2023-01-03T05:33:03.308Z,1016.26
2023-01-03T05:34:03.301Z,1016.25
2023-01-03T05:35:03.319Z,1016.25
2023-01-03T05:36:03.341Z,1016.24
2023-01-03T05:37:03.307Z,1016.28
2023-01-03T05:38:03.264Z,1016.24
2023-01-03T05:39:03.260Z,1016.31
2023-01-03T05:40:03.274Z,1016.31
2023-01-03T05:41:03.262Z,1016.27
2023-01-03T05:42:03.355Z,1016.35
2023-01-03T05:43:03.278Z,1016.30
2023-01-03T05:44:03.340Z,1016.31
2023-01-03T05:45:03.356Z,1016.32
2023-01-03T05:46:03.462Z,1016.32
2023-01-03T05:47:03.355Z,1016.41
2023-01-03T05:48:03.356Z,1016.38
2023-01-03T05:49:03.215Z,1016.35
2023-01-03T05:50:03.241Z,1016.33
2023-01-03T05:51:03.376Z,1016.33
2023-01-03T05:52:03.177Z,1016.27
2023-01-03T05:53:03.172Z,1016.27
2023-01-03T05:54:03.283Z,1016.30
2023-01-03T05:55:03.398Z,1016.27
2023-01-03T05:56:03.468Z,1016.28
2023-01-03T05:57:03.147Z,1016.31
2023-01-03T05:58:03.494Z,1016.35
2023-01-03T05:59:03.363Z,1016.35
2023-01-03T06:00:03.187Z,1016.40
2023-01-03T06:01:03.518Z,1016.38
2023-01-03T06:02:03.683Z,1016.36
2023-01-03T06:03:03.189Z,1016.38
2023-01-03T06:04:03.618Z,1016.39
2023-01-03T06:05:03.565Z,1016.35
2023-01-03T06:06:03.714Z,1016.37
2023-01-03T06:07:03.467Z,1016.41
2023-01-03T06:08:03.074Z,1016.46
2023-01-03T06:09:03.393Z,1016.41
2023-01-03T06:10:03.718Z,1016.42
2023-01-03T06:11:03.073Z,1016.42
2023-01-03T06:12:03.513Z,1016.41
2023-01-03T06:13:03.096Z,1016.38
2023-01-03T06:14:03.368Z,1016.41
2023-01-03T06:15:03.125Z,1016.41
2023-01-03T06:16:03.123Z,1016.42
2023-01-03T06:17:03.171Z,1016.45
2023-01-03T06:18:03.565Z,1016.44
2023-01-03T06:19:03.761Z,1016.46
2023-01-03T06:20:03.371Z,1016.44
2023-01-03T06:21:03.380Z,1016.48
2023-01-03T06:22:08.680Z,1016.44
2023-01-03T06:23:03.078Z,1016.48
2023-01-03T06:24:03.181Z,1016.51
2023-01-03T06:25:03.181Z,1016.48
2023-01-03T06:26:03.196Z,1016.51
2023-01-03T06:27:03.080Z,1016.51
2023-01-03T06:28:03.043Z,1016.51
2023-01-03T06:29:02.965Z,1016.49
2023-01-03T06:30:03.031Z,1016.50
2023-01-03T06:31:03.498Z,1016.47
2023-01-03T06:32:08.809Z,1016.48
2023-01-03T06:33:03.230Z,1016.51
2023-01-03T06:34:03.547Z,1016.54
2023-01-03T06:35:02.930Z,1016.49
2023-01-03T06:36:03.274Z,1016.51
2023-01-03T06:37:03.080Z,1016.47
2023-01-03T06:38:03.780Z,1016.53
2023-01-03T06:39:02.977Z,1016.54
2023-01-03T06:40:03.304Z,1016.55
2023-01-03T06:41:03.487Z,1016.52
2023-01-03T06:42:03.037Z,1016.56
2023-01-03T06:43:02.875Z,1016.64
2023-01-03T06:44:03.110Z,1016.56
2023-01-03T06:45:02.955Z,1016.60
2023-01-03T06:46:02.904Z,1016.61
2023-01-03T06:47:03.663Z,1016.65
2023-01-03T06:48:03.127Z,1016.71
2023-01-03T06:49:02.943Z,1016.67
2023-01-03T06:50:02.939Z,1016.70
2023-01-03T06:51:03.184Z,1016.68
2023-01-03T06:52:03.158Z,1016.61
2023-01-03T06:53:03.164Z,1016.61
2023-01-03T06:54:02.962Z,1016.63
2023-01-03T06:55:03.264Z,1016.54
2023-01-03T06:56:03.183Z,1016.62
2023-01-03T06:57:03.196Z,1016.54
2023-01-03T06:58:03.425Z,1016.60
2023-01-03T06:59:02.908Z,1016.60
2023-01-03T07:00:02.891Z,1016.59
2023-01-03T07:01:03.016Z,1016.56
2023-01-03T07:02:03.005Z,1016.57
2023-01-03T07:03:08.850Z,1016.53
2023-01-03T07:04:03.014Z,1016.52
2023-01-03T07:05:03.137Z,1016.57
2023-01-03T07:06:03.061Z,1016.56
2023-01-03T07:07:03.333Z,1016.60
2023-01-03T07:08:02.715Z,1016.59
2023-01-03T07:09:03.141Z,1016.59
2023-01-03T07:10:02.858Z,1016.60
2023-01-03T07:11:03.304Z,1016.58
2023-01-03T07:12:02.872Z,1016.62
2023-01-03T07:13:02.748Z,1016.60
2023-01-03T07:14:02.786Z,1016.59
2023-01-03T07:15:02.739Z,1016.58
2023-01-03T07:16:03.600Z,1016.64
2023-01-03T07:17:02.710Z,1016.68
2023-01-03T07:18:02.967Z,1016.65
2023-01-03T07:19:02.705Z,1016.68
2023-01-03T07:20:02.724Z,1016.67
2023-01-03T07:21:03.449Z,1016.69
2023-01-03T07:22:02.747Z,1016.66
2023-01-03T07:23:03.227Z,1016.63
2023-01-03T07:24:03.590Z,1016.64
2023-01-03T07:25:02.846Z,1016.65
2023-01-03T07:26:02.620Z,1016.62
2023-01-03T07:27:02.618Z,1016.61
2023-01-03T07:28:06.526Z,1016.63
2023-01-03T07:29:03.065Z,1016.63
2023-01-03T07:30:02.667Z,1016.59
2023-01-03T07:31:02.710Z,1016.63
2023-01-03T07:32:03.051Z,1016.63
2023-01-03T07:33:02.812Z,1016.66
2023-01-03T07:34:02.667Z,1016.61
2023-01-03T07:35:02.692Z,1016.63
2023-01-03T07:36:09.331Z,1016.69
2023-01-03T07:37:02.575Z,1016.75
2023-01-03T07:38:02.633Z,1016.74
2023-01-03T07:39:02.686Z,1016.73
2023-01-03T07:40:02.650Z,1016.71
2023-01-03T07:41:02.672Z,1016.74
2023-01-03T07:42:02.879Z,1016.81
2023-01-03T07:43:02.906Z,1016.79
2023-01-03T07:44:02.674Z,1016.78
2023-01-03T07:45:02.674Z,1016.80
2023-01-03T07:46:03.115Z,1016.74
2023-01-03T07:47:03.029Z,1016.82
2023-01-03T07:48:03.011Z,1016.83
2023-01-03T07:49:07.876Z,1016.70
2023-01-03T07:50:03.026Z,1016.78
2023-01-03T07:51:03.136Z,1016.77
2023-01-03T07:52:03.138Z,1016.69
2023-01-03T07:53:02.444Z,1016.69
2023-01-03T07:54:02.470Z,1016.71
2023-01-03T07:55:02.434Z,1016.72
2023-01-03T07:56:06.389Z,1016.68
2023-01-03T07:57:02.568Z,1016.67
2023-01-03T07:58:02.578Z,1016.73
2023-01-03T07:59:02.709Z,1016.66
2023-01-03T08:00:02.750Z,1016.68
2023-01-03T08:01:02.379Z,1016.67
2023-01-03T08:02:02.868Z,1016.65
2023-01-03T08:03:03.409Z,1016.57
2023-01-03T08:04:02.407Z,1016.71
2023-01-03T08:05:03.013Z,1016.71
2023-01-03T08:06:03.036Z,1016.71
2023-01-03T08:07:02.837Z,1016.64
2023-01-03T08:08:02.348Z,1016.69
2023-01-03T08:09:06.275Z,1016.71
2023-01-03T08:10:02.355Z,1016.73
2023-01-03T08:11:02.348Z,1016.68
2023-01-03T08:12:02.352Z,1016.74
2023-01-03T08:13:02.364Z,1016.68
2023-01-03T08:14:02.456Z,1016.80
2023-01-03T08:15:02.463Z,1016.74
2023-01-03T08:16:02.422Z,1016.71
2023-01-03T08:17:02.590Z,1016.74
2023-01-03T08:18:02.485Z,1016.79
2023-01-03T08:19:02.320Z,1016.74
2023-01-03T08:20:02.712Z,1016.71
2023-01-03T08:21:02.612Z,1016.69
2023-01-03T08:22:02.401Z,1016.73
2023-01-03T08:23:02.821Z,1016.71
2023-01-03T08:24:02.968Z,1016.78
2023-01-03T08:25:02.938Z,1016.75
2023-01-03T08:26:02.264Z,1016.70
2023-01-03T08:27:02.853Z,1016.69
2023-01-03T08:28:02.262Z,1016.68
2023-01-03T08:29:03.073Z,1016.74
2023-01-03T08:30:02.964Z,1016.75
2023-01-03T08:31:02.557Z,1016.77
2023-01-03T08:32:02.187Z,1016.76
2023-01-03T08:33:02.198Z,1016.71
2023-01-03T08:34:02.884Z,1016.74
2023-01-03T08:35:02.287Z,1016.62
2023-01-03T08:36:03.012Z,1016.74
2023-01-03T08:37:02.445Z,1016.68
2023-01-03T08:38:02.815Z,1016.66
2023-01-03T08:39:03.023Z,1016.62
2023-01-03T08:40:02.731Z,1016.68
2023-01-03T08:41:02.239Z,1016.64
2023-01-03T08:42:02.350Z,1016.72
2023-01-03T08:43:02.940Z,1016.68
2023-01-03T08:44:02.255Z,1016.72
2023-01-03T08:45:02.998Z,1016.73
2023-01-03T08:46:02.182Z,1016.75
2023-01-03T08:47:02.147Z,1016.77
2023-01-03T08:48:02.085Z,1016.75
2023-01-03T08:49:02.102Z,1016.77
2023-01-03T08:50:02.185Z,1016.78
2023-01-03T08:51:02.111Z,1016.80
2023-01-03T08:52:02.101Z,1016.80
2023-01-03T08:53:02.065Z,1016.78
2023-01-03T08:54:02.114Z,1016.82
2023-01-03T08:55:02.241Z,1016.78
2023-01-03T08:56:02.243Z,1016.83
2023-01-03T08:57:02.038Z,1016.85
2023-01-03T08:58:02.036Z,1016.89
2023-01-03T08:59:02.135Z,1016.89
2023-01-03T09:00:02.460Z,1016.85
2023-01-03T09:01:02.097Z,1016.84
2023-01-03T09:02:02.399Z,1016.82
2023-01-03T09:03:02.245Z,1016.74
2023-01-03T09:04:02.359Z,1016.75
2023-01-03T09:05:02.801Z,1016.71
2023-01-03T09:06:02.810Z,1016.75
2023-01-03T09:07:02.818Z,1016.70
2023-01-03T09:08:02.399Z,1016.69
2023-01-03T09:09:02.729Z,1016.63
2023-01-03T09:10:02.965Z,1016.74
2023-01-03T09:11:02.858Z,1016.75
2023-01-03T09:12:02.132Z,1016.73
2023-01-03T09:13:02.552Z,1016.70
2023-01-03T09:14:02.831Z,1016.72
2023-01-03T09:15:01.971Z,1016.73
2023-01-03T09:16:02.015Z,1016.72
2023-01-03T09:17:01.921Z,1016.71
2023-01-03T09:18:01.893Z,1016.73
2023-01-03T09:19:01.876Z,1016.63
2023-01-03T09:20:01.867Z,1016.66
2023-01-03T09:21:01.997Z,1016.61
2023-01-03T09:22:02.414Z,1016.61
2023-01-03T09:23:01.894Z,1016.62
2023-01-03T09:24:01.863Z,1016.62
2023-01-03T09:25:01.906Z,1016.61
2023-01-03T09:26:01.916Z,1016.58
2023-01-03T09:27:01.948Z,1016.55
2023-01-03T09:28:02.041Z,1016.54
2023-01-03T09:29:02.064Z,1016.54
2023-01-03T09:30:01.888Z,1016.58
2023-01-03T09:31:02.144Z,1016.55
2023-01-03T09:32:01.912Z,1016.56
2023-01-03T09:33:01.894Z,1016.54
2023-01-03T09:34:01.876Z,1016.51
2023-01-03T09:35:01.781Z,1016.53
2023-01-03T09:36:01.760Z,1016.54
2023-01-03T09:37:01.804Z,1016.53
2023-01-03T09:38:01.776Z,1016.59
2023-01-03T09:39:01.723Z,1016.56
2023-01-03T09:40:01.747Z,1016.58
2023-01-03T09:41:01.839Z,1016.61
2023-01-03T09:42:01.812Z,1016.60
2023-01-03T09:43:01.853Z,1016.57
2023-01-03T09:44:01.846Z,1016.53
2023-01-03T09:45:01.851Z,1016.58
2023-01-03T09:46:01.758Z,1016.55
2023-01-03T09:47:01.906Z,1016.59
2023-01-03T09:48:01.880Z,1016.50
2023-01-03T09:49:01.890Z,1016.47
2023-01-03T09:51:22.716Z,1016.52
2023-01-03T09:52:01.919Z,1016.50
2023-01-03T09:53:01.640Z,1016.52
2023-01-03T09:54:01.623Z,1016.55
2023-01-03T09:55:01.631Z,1016.56
2023-01-03T09:56:01.647Z,1016.51
2023-01-03T09:57:01.647Z,1016.48
2023-01-03T09:58:01.640Z,1016.46
2023-01-03T09:59:01.686Z,1016.53
2023-01-03T10:00:01.619Z,1016.48
2023-01-03T10:01:01.758Z,1016.42
2023-01-03T10:02:01.855Z,1016.46
2023-01-03T10:03:01.735Z,1016.45
2023-01-03T10:04:01.681Z,1016.46
2023-01-03T10:05:01.636Z,1016.40
2023-01-03T10:06:01.702Z,1016.43
2023-01-03T10:07:01.683Z,1016.41
2023-01-03T10:08:01.704Z,1016.39
2023-01-03T10:09:01.707Z,1016.44
2023-01-03T10:10:01.723Z,1016.34
2023-01-03T10:11:01.615Z,1016.45
2023-01-03T10:12:01.740Z,1016.33
2023-01-03T10:13:01.814Z,1016.27
2023-01-03T10:14:01.809Z,1016.33
2023-01-03T10:15:01.571Z,1016.32
2023-01-03T10:16:01.582Z,1016.34
2023-01-03T10:17:01.877Z,1016.34
2023-01-03T10:18:01.768Z,1016.40
2023-01-03T10:19:01.848Z,1016.33
2023-01-03T10:20:01.457Z,1016.35
2023-01-03T10:21:01.462Z,1016.29
2023-01-03T10:22:02.000Z,1016.29
2023-01-03T10:23:01.811Z,1016.25
2023-01-03T10:24:02.054Z,1016.23
2023-01-03T10:25:01.463Z,1016.25
2023-01-03T10:26:02.028Z,1016.23
2023-01-03T10:27:01.831Z,1016.28
2023-01-03T10:28:02.043Z,1016.23
2023-01-03T10:29:02.069Z,1016.29
2023-01-03T10:30:01.846Z,1016.13
2023-01-03T10:31:07.786Z,1016.18
2023-01-03T10:32:01.814Z,1016.20
2023-01-03T10:33:02.085Z,1016.25
2023-01-03T10:34:02.079Z,1016.22
2023-01-03T10:35:01.694Z,1016.25
2023-01-03T10:36:01.356Z,1016.22
2023-01-03T10:37:01.379Z,1016.18
2023-01-03T10:38:02.118Z,1016.12
2023-01-03T10:39:01.359Z,1016.19
2023-01-03T10:40:01.351Z,1016.16
2023-01-03T10:41:01.394Z,1016.12
2023-01-03T10:42:01.431Z,1016.07
2023-01-03T10:43:01.327Z,1016.06
2023-01-03T10:44:01.598Z,1016.13
2023-01-03T10:45:01.633Z,1016.10
2023-01-03T10:46:01.765Z,1016.17
2023-01-03T10:47:01.768Z,1016.09
2023-01-03T10:48:01.834Z,1016.07
2023-01-03T10:49:30.899Z,1016.13
2023-01-03T10:50:01.646Z,1016.05
2023-01-03T10:51:01.377Z,1016.12
2023-01-03T10:52:01.815Z,1016.09
2023-01-03T10:53:01.805Z,1016.01
2023-01-03T10:54:01.408Z,1016.08
2023-01-03T10:55:01.410Z,1016.08
2023-01-03T10:56:02.034Z,1016.13
2023-01-03T10:57:01.269Z,1016.08
2023-01-03T10:58:01.225Z,1016.07
2023-01-03T10:59:01.232Z,1016.12
2023-01-03T11:00:01.235Z,1016.09
2023-01-03T11:01:01.286Z,1016.10
2023-01-03T11:02:01.438Z,1016.07
2023-01-03T11:03:01.442Z,1016.11
2023-01-03T11:04:01.298Z,1016.20
2023-01-03T11:05:01.199Z,1016.18
2023-01-03T11:06:01.181Z,1016.26
2023-01-03T11:07:01.196Z,1016.18
2023-01-03T11:08:01.160Z,1016.20
2023-01-03T11:09:01.162Z,1016.21
2023-01-03T11:10:01.174Z,1016.15
2023-01-03T11:11:01.226Z,1016.14
2023-01-03T11:12:01.206Z,1016.13
2023-01-03T11:13:01.223Z,1016.10
2023-01-03T11:14:01.160Z,1016.12
2023-01-03T11:15:01.212Z,1016.08
2023-01-03T11:16:01.150Z,1016.12
2023-01-03T11:17:01.238Z,1016.06
2023-01-03T11:18:01.152Z,1016.05
2023-01-03T11:19:01.206Z,1016.09
2023-01-03T11:20:01.232Z,1016.09
2023-01-03T11:21:01.196Z,1015.98
2023-01-03T11:22:01.194Z,1016.03
2023-01-03T11:23:01.148Z,1016.02
2023-01-03T11:24:01.410Z,1015.99
2023-01-03T11:25:01.419Z,1016.09
2023-01-03T11:26:01.211Z,1016.05
2023-01-03T11:27:01.420Z,1016.08
2023-01-03T11:28:01.221Z,1015.98
2023-01-03T11:29:01.454Z,1016.04
2023-01-03T11:30:01.039Z,1016.09
2023-01-03T11:31:01.071Z,1016.06
2023-01-03T11:32:01.222Z,1016.00
2023-01-03T11:33:01.092Z,1016.03
2023-01-03T11:34:01.087Z,1016.01
2023-01-03T11:36:01.139Z,1015.93
2023-01-03T11:37:01.083Z,1015.96
2023-01-03T11:38:01.149Z,1015.91
2023-01-03T11:39:01.321Z,1015.91
2023-01-03T11:40:00.949Z,1015.94
2023-01-03T11:41:01.298Z,1015.87
2023-01-03T11:42:01.327Z,1015.83
2023-01-03T11:43:01.534Z,1015.81
2023-01-03T11:44:01.561Z,1015.87
2023-01-03T11:45:01.589Z,1015.86
2023-01-03T11:46:01.625Z,1015.77
2023-01-03T11:47:01.147Z,1015.82
2023-01-03T11:48:01.584Z,1015.80
2023-01-03T11:49:01.783Z,1015.78
2023-01-03T11:50:01.645Z,1015.73
2023-01-03T11:51:01.018Z,1015.76
2023-01-03T11:52:01.837Z,1015.77
2023-01-03T11:53:01.821Z,1015.79
2023-01-03T11:54:01.019Z,1015.68
2023-01-03T11:55:00.898Z,1015.70
2023-01-03T11:56:01.019Z,1015.73
2023-01-03T11:57:00.885Z,1015.65
2023-01-03T11:58:00.825Z,1015.70
2023-01-03T11:59:01.054Z,1015.67
2023-01-03T12:00:01.244Z,1015.73
2023-01-03T12:01:00.871Z,1015.65
2023-01-03T12:02:01.100Z,1015.54
2023-01-03T12:03:00.934Z,1015.63
2023-01-03T12:04:01.249Z,1015.59
2023-01-03T12:05:00.875Z,1015.56
2023-01-03T12:06:01.140Z,1015.54
2023-01-03T12:07:36.757Z,1015.46